Time;durP1;ratioP1;P1;durP2;ratioP2;P2;SDS_P1;SDS_P2;PMS_P1;PMS_P2;Temp;Humidity;BMP_temperature;BMP_pressure;BME280_temperature;BME280_humidity;BME280_pressure;Samples;Min_cycle;Max_cycle;Signal;HPM_P1;HPM_P2
2023/12/05 00:01:38;;;;;;;42.43;16.80;;;;;;;;;;6173716;23;20192;-90
2023/12/05 00:04:45;;;;;;;44.17;16.23;;;;;;;;;;6172238;23;20183;-91
2023/12/05 00:07:51;;;;;;;35.90;14.83;;;;;;;;;;6178308;23;20212;-88
2023/12/05 00:10:56;;;;;;;40.03;15.80;;;;;;;;;;6171941;23;20168;-91
2023/12/05 00:14:01;;;;;;;34.73;14.63;;;;;;;;;;6171183;23;20148;-89
2023/12/05 00:17:07;;;;;;;38.77;14.83;;;;;;;;;;6171230;23;20149;-91
2023/12/05 00:20:14;;;;;;;38.93;15.83;;;;;;;;;;6171193;23;20212;-89
2023/12/05 00:23:19;;;;;;;35.53;15.70;;;;;;;;;;6170185;23;20169;-90
2023/12/05 00:26:25;;;;;;;38.07;15.40;;;;;;;;;;6170633;23;20172;-88
2023/12/05 00:29:31;;;;;;;38.70;15.87;;;;;;;;;;6172543;23;20240;-88
2023/12/05 00:32:36;;;;;;;39.97;15.73;;;;;;;;;;6172325;23;20172;-90
2023/12/05 00:35:43;;;;;;;40.20;15.83;;;;;;;;;;6170502;23;20183;-89
2023/12/05 00:38:49;;;;;;;37.50;15.33;;;;;;;;;;6171673;23;20503;-90
2023/12/05 00:41:54;;;;;;;41.23;15.77;;;;;;;;;;6170709;23;20164;-91
2023/12/05 00:44:59;;;;;;;38.03;15.73;;;;;;;;;;6169615;23;20156;-91
2023/12/05 00:48:04;;;;;;;44.17;17.27;;;;;;;;;;6169338;23;20336;-91
2023/12/05 00:51:11;;;;;;;36.07;14.90;;;;;;;;;;6168456;23;20288;-90
2023/12/05 00:54:16;;;;;;;38.63;15.37;;;;;;;;;;6169924;23;20193;-90
2023/12/05 00:57:22;;;;;;;42.27;15.73;;;;;;;;;;6168364;23;20576;-90
2023/12/05 01:00:27;;;;;;;37.80;15.47;;;;;;;;;;6168948;23;20200;-91
2023/12/05 01:03:32;;;;;;;42.50;16.50;;;;;;;;;;6170181;23;20164;-89
2023/12/05 01:06:39;;;;;;;42.60;16.37;;;;;;;;;;6169305;23;20180;-91
2023/12/05 01:09:44;;;;;;;40.40;16.07;;;;;;;;;;6171403;23;20667;-92
2023/12/05 01:12:49;;;;;;;42.40;16.77;;;;;;;;;;6169419;23;20168;-91
2023/12/05 01:15:54;;;;;;;40.30;15.93;;;;;;;;;;6168499;23;20148;-91
2023/12/05 01:19:00;;;;;;;38.90;15.80;;;;;;;;;;6169373;23;20152;-91
2023/12/05 01:22:06;;;;;;;39.23;15.10;;;;;;;;;;6169092;23;20487;-91
2023/12/05 01:25:12;;;;;;;41.37;15.30;;;;;;;;;;6169532;23;20663;-91
2023/12/05 01:28:16;;;;;;;36.60;14.77;;;;;;;;;;6168282;23;20218;-91
2023/12/05 01:31:21;;;;;;;34.80;14.13;;;;;;;;;;6170900;23;20170;-92
2023/12/05 01:34:27;;;;;;;37.63;13.93;;;;;;;;;;6171182;23;20168;-90
2023/12/05 01:37:33;;;;;;;39.50;15.53;;;;;;;;;;6170091;23;20169;-92
2023/12/05 01:40:39;;;;;;;36.70;14.87;;;;;;;;;;6169389;23;20624;-91
2023/12/05 01:43:44;;;;;;;43.53;16.10;;;;;;;;;;6169046;23;20172;-91
2023/12/05 01:46:49;;;;;;;34.63;13.93;;;;;;;;;;6169306;23;20169;-90
2023/12/05 01:49:55;;;;;;;37.07;14.43;;;;;;;;;;6169299;23;20195;-91
2023/12/05 01:53:03;;;;;;;37.00;13.93;;;;;;;;;;6170503;23;20296;-91
2023/12/05 01:56:10;;;;;;;32.70;13.40;;;;;;;;;;6168981;23;20165;-91
2023/12/05 01:59:16;;;;;;;38.07;14.77;;;;;;;;;;6168929;23;20165;-91
2023/12/05 02:02:21;;;;;;;37.30;13.50;;;;;;;;;;6169040;23;20188;-90
2023/12/05 02:05:27;;;;;;;38.13;14.27;;;;;;;;;;6165235;23;20172;-93
2023/12/05 02:08:34;;;;;;;36.10;14.60;;;;;;;;;;6164562;23;20855;-90
2023/12/05 02:11:39;;;;;;;35.63;13.77;;;;;;;;;;6165649;23;20705;-92
2023/12/05 02:14:45;;;;;;;38.67;15.10;;;;;;;;;;6166656;23;20185;-92
2023/12/05 02:17:54;;;;;;;41.53;15.43;;;;;;;;;;6169075;23;20252;-91
2023/12/05 02:21:03;;;;;;;34.90;14.17;;;;;;;;;;6167813;23;20177;-91
2023/12/05 02:24:26;;;;;;;33.87;13.23;;;;;;;;;;6168183;23;20212;-91
2023/12/05 02:27:36;;;;;;;37.27;14.00;;;;;;;;;;6169207;23;20241;-90
2023/12/05 02:30:46;;;;;;;34.33;14.37;;;;;;;;;;6170792;23;20206;-90
2023/12/05 02:33:51;;;;;;;34.70;13.73;;;;;;;;;;6168064;23;20248;-92
2023/12/05 02:37:00;;;;;;;39.77;15.60;;;;;;;;;;6168975;23;20204;-91
2023/12/05 02:40:12;;;;;;;36.20;14.90;;;;;;;;;;6168997;23;20317;-91
2023/12/05 02:43:20;;;;;;;35.97;14.80;;;;;;;;;;6169893;23;20189;-92
2023/12/05 02:46:25;;;;;;;47.57;16.50;;;;;;;;;;6170174;23;20164;-91
2023/12/05 02:49:30;;;;;;;36.40;14.50;;;;;;;;;;6168340;23;20221;-91
2023/12/05 02:52:36;;;;;;;34.43;14.33;;;;;;;;;;6169477;23;20151;-92
2023/12/05 02:55:42;;;;;;;38.90;14.70;;;;;;;;;;6169640;23;20168;-91
2023/12/05 02:58:49;;;;;;;32.57;14.70;;;;;;;;;;6170484;23;20608;-91
2023/12/05 03:01:54;;;;;;;31.50;13.50;;;;;;;;;;6167896;23;20232;-91
2023/12/05 03:04:59;;;;;;;36.17;14.47;;;;;;;;;;6168619;23;20234;-91
2023/12/05 03:08:04;;;;;;;34.63;14.67;;;;;;;;;;6166256;23;20217;-90
2023/12/05 03:11:09;;;;;;;32.77;14.63;;;;;;;;;;6169046;23;20172;-92
2023/12/05 03:14:16;;;;;;;43.20;15.40;;;;;;;;;;6167766;23;20163;-92
2023/12/05 03:17:21;;;;;;;38.00;15.80;;;;;;;;;;6168494;23;20620;-92
2023/12/05 03:20:26;;;;;;;32.13;14.07;;;;;;;;;;6169430;23;20168;-91
2023/12/05 03:23:32;;;;;;;38.50;15.00;;;;;;;;;;6168432;23;20238;-91
2023/12/05 03:26:37;;;;;;;40.37;15.57;;;;;;;;;;6169578;23;20172;-91
2023/12/05 03:29:43;;;;;;;36.77;14.90;;;;;;;;;;6168807;23;20312;-93
2023/12/05 03:32:49;;;;;;;40.57;14.73;;;;;;;;;;6169089;23;20165;-93
2023/12/05 03:35:54;;;;;;;38.07;15.30;;;;;;;;;;6168470;23;20169;-92
2023/12/05 03:38:59;;;;;;;35.77;14.03;;;;;;;;;;6167968;23;20172;-92
2023/12/05 03:42:05;;;;;;;33.90;13.97;;;;;;;;;;6169564;23;20177;-92
2023/12/05 03:45:12;;;;;;;34.93;14.37;;;;;;;;;;6170262;23;20259;-90
2023/12/05 03:48:17;;;;;;;32.57;13.90;;;;;;;;;;6168897;23;20169;-91
2023/12/05 03:51:22;;;;;;;35.60;14.23;;;;;;;;;;6168126;23;20168;-91
2023/12/05 03:54:28;;;;;;;37.57;14.63;;;;;;;;;;6168379;23;20601;-92
2023/12/05 03:57:33;;;;;;;33.60;14.50;;;;;;;;;;6168062;23;20618;-91
2023/12/05 04:00:41;;;;;;;37.80;14.80;;;;;;;;;;6170371;23;20172;-93
2023/12/05 04:03:46;;;;;;;35.43;14.60;;;;;;;;;;6175256;23;20165;-92
2023/12/05 04:06:52;;;;;;;37.13;14.50;;;;;;;;;;6168243;23;20496;-91
2023/12/05 04:09:57;;;;;;;36.93;14.80;;;;;;;;;;6170648;23;20232;-90
2023/12/05 04:13:02;;;;;;;36.13;14.83;;;;;;;;;;6168345;23;20169;-90
2023/12/05 04:16:09;;;;;;;32.83;13.60;;;;;;;;;;6168095;23;20240;-91
2023/12/05 04:19:15;;;;;;;35.97;15.07;;;;;;;;;;6169480;23;20243;-91
2023/12/05 04:22:21;;;;;;;33.23;14.47;;;;;;;;;;6153942;23;20168;-90
2023/12/05 04:25:26;;;;;;;31.33;13.50;;;;;;;;;;6170584;23;20157;-90
2023/12/05 04:28:32;;;;;;;37.00;14.70;;;;;;;;;;6172817;23;20197;-92
2023/12/05 04:31:38;;;;;;;36.77;15.23;;;;;;;;;;6174733;23;20168;-93
2023/12/05 04:34:44;;;;;;;31.03;13.43;;;;;;;;;;6169939;23;20172;-92
2023/12/05 04:37:49;;;;;;;35.10;14.17;;;;;;;;;;6171467;23;20201;-91
2023/12/05 04:40:55;;;;;;;28.73;13.07;;;;;;;;;;6170975;23;20176;-89
2023/12/05 04:44:00;;;;;;;29.57;12.47;;;;;;;;;;6167255;23;20292;-89
2023/12/05 04:47:06;;;;;;;34.73;12.87;;;;;;;;;;6167646;23;20204;-88
2023/12/05 04:50:12;;;;;;;32.60;13.33;;;;;;;;;;6167798;23;20196;-91
2023/12/05 04:53:17;;;;;;;31.37;12.97;;;;;;;;;;6168679;23;20619;-88
2023/12/05 04:56:22;;;;;;;30.30;12.87;;;;;;;;;;6168880;23;20168;-90
2023/12/05 04:59:27;;;;;;;33.13;13.57;;;;;;;;;;6167928;23;20171;-89
2023/12/05 05:02:33;;;;;;;36.43;13.53;;;;;;;;;;6167551;23;20244;-91
2023/12/05 05:05:39;;;;;;;32.97;12.83;;;;;;;;;;6169542;23;20175;-89
2023/12/05 05:08:44;;;;;;;29.67;12.93;;;;;;;;;;6166560;23;20172;-89
2023/12/05 05:11:49;;;;;;;33.20;12.80;;;;;;;;;;6169249;23;20169;-89
2023/12/05 05:14:54;;;;;;;34.57;13.47;;;;;;;;;;6169570;23;20169;-90
2023/12/05 05:18:01;;;;;;;38.77;14.07;;;;;;;;;;6168853;23;20168;-91
2023/12/05 05:21:06;;;;;;;35.87;14.73;;;;;;;;;;6170508;23;20148;-90
2023/12/05 05:24:11;;;;;;;37.50;15.80;;;;;;;;;;6169339;23;20285;-90
2023/12/05 05:27:16;;;;;;;38.10;15.30;;;;;;;;;;6168957;23;20236;-91
2023/12/05 05:30:21;;;;;;;36.17;14.47;;;;;;;;;;6165464;23;20248;-89
2023/12/05 05:33:28;;;;;;;36.43;14.87;;;;;;;;;;6166506;23;20193;-90
2023/12/05 05:36:33;;;;;;;34.47;14.10;;;;;;;;;;6169286;23;20168;-90
2023/12/05 05:39:39;;;;;;;32.00;14.07;;;;;;;;;;6169196;23;20624;-91
2023/12/05 05:42:44;;;;;;;35.83;15.20;;;;;;;;;;6169211;23;20169;-90
2023/12/05 05:45:54;;;;;;;36.40;14.27;;;;;;;;;;6172206;23;20165;-89
2023/12/05 05:49:02;;;;;;;37.07;14.60;;;;;;;;;;6166874;23;20192;-88
2023/12/05 05:52:08;;;;;;;29.17;12.50;;;;;;;;;;6170487;23;20156;-90
2023/12/05 05:55:13;;;;;;;34.90;13.50;;;;;;;;;;6169094;23;20489;-90
2023/12/05 05:58:18;;;;;;;28.50;13.23;;;;;;;;;;6168807;23;20167;-90
2023/12/05 06:01:23;;;;;;;32.17;13.53;;;;;;;;;;6169553;23;20206;-90
2023/12/05 06:04:31;;;;;;;31.13;13.03;;;;;;;;;;6170580;23;20168;-89
2023/12/05 06:07:36;;;;;;;30.40;13.03;;;;;;;;;;6168116;23;20212;-90
2023/12/05 06:10:42;;;;;;;29.73;12.63;;;;;;;;;;6169098;23;20255;-90
2023/12/05 06:13:47;;;;;;;33.00;12.87;;;;;;;;;;6171154;23;20165;-91
2023/12/05 06:16:52;;;;;;;35.23;13.80;;;;;;;;;;6170292;23;20263;-90
2023/12/05 06:20:15;;;;;;;33.13;13.00;;;;;;;;;;6171543;23;20197;-90
2023/12/05 06:23:26;;;;;;;35.57;16.00;;;;;;;;;;6172603;23;20345;-90
2023/12/05 06:26:32;;;;;;;31.37;13.63;;;;;;;;;;6172239;23;20173;-90
2023/12/05 06:29:37;;;;;;;35.43;14.67;;;;;;;;;;6169804;23;20204;-89
2023/12/05 06:32:44;;;;;;;30.83;13.40;;;;;;;;;;6170210;23;20176;-89
2023/12/05 06:35:53;;;;;;;32.03;12.80;;;;;;;;;;6171605;23;20172;-89
2023/12/05 06:39:00;;;;;;;30.00;12.67;;;;;;;;;;6172695;23;20165;-89
2023/12/05 06:42:05;;;;;;;29.23;12.63;;;;;;;;;;6172411;23;20169;-91
2023/12/05 06:45:11;;;;;;;36.63;13.87;;;;;;;;;;6171275;23;20253;-91
2023/12/05 06:48:16;;;;;;;36.90;14.10;;;;;;;;;;6168860;23;20172;-91
2023/12/05 06:51:25;;;;;;;34.93;14.23;;;;;;;;;;6168337;23;20168;-91
2023/12/05 06:54:31;;;;;;;31.90;14.03;;;;;;;;;;6169213;23;20163;-89
2023/12/05 06:57:38;;;;;;;32.57;13.30;;;;;;;;;;6166706;23;20514;-91
2023/12/05 07:00:44;;;;;;;31.97;13.20;;;;;;;;;;6172855;23;20197;-89
2023/12/05 07:03:50;;;;;;;33.63;13.50;;;;;;;;;;6170689;23;20172;-91
2023/12/05 07:06:56;;;;;;;34.77;14.10;;;;;;;;;;6170896;23;20164;-91
2023/12/05 07:10:05;;;;;;;38.17;13.37;;;;;;;;;;6172606;23;20176;-91
2023/12/05 07:13:11;;;;;;;35.63;13.90;;;;;;;;;;6169355;23;20171;-92
2023/12/05 07:16:16;;;;;;;32.40;14.23;;;;;;;;;;6172879;23;20168;-91
2023/12/05 07:19:21;;;;;;;43.10;16.63;;;;;;;;;;6170897;23;20694;-92
2023/12/05 07:22:27;;;;;;;35.80;14.57;;;;;;;;;;6172575;23;20168;-91
2023/12/05 07:25:34;;;;;;;31.07;13.47;;;;;;;;;;6169609;23;20176;-92
2023/12/05 07:28:39;;;;;;;25.53;10.03;;;;;;;;;;6170907;23;20212;-93
2023/12/05 07:31:44;;;;;;;29.40;11.20;;;;;;;;;;6171721;23;20287;-93
2023/12/05 07:34:50;;;;;;;26.80;10.03;;;;;;;;;;6170192;23;20288;-92
2023/12/05 07:37:56;;;;;;;34.53;12.57;;;;;;;;;;6167648;23;20164;-91
2023/12/05 07:41:03;;;;;;;26.03;11.07;;;;;;;;;;6171079;23;20272;-90
2023/12/05 07:44:08;;;;;;;31.83;11.53;;;;;;;;;;6168927;23;20173;-91
2023/12/05 07:47:14;;;;;;;27.37;10.30;;;;;;;;;;6168310;23;20192;-92
2023/12/05 07:50:19;;;;;;;31.27;11.13;;;;;;;;;;6166058;23;20276;-91
2023/12/05 07:53:24;;;;;;;33.73;11.73;;;;;;;;;;6168377;23;20157;-89
2023/12/05 07:56:32;;;;;;;34.73;11.37;;;;;;;;;;6168613;23;20169;-88
2023/12/05 07:59:37;;;;;;;27.27;10.53;;;;;;;;;;6169490;23;20180;-89
2023/12/05 08:02:42;;;;;;;26.10;11.43;;;;;;;;;;6167048;23;20195;-89
2023/12/05 08:05:50;;;;;;;28.53;11.90;;;;;;;;;;6171535;23;20216;-89
2023/12/05 08:08:59;;;;;;;33.47;11.47;;;;;;;;;;6173652;23;20193;-90
2023/12/05 08:12:07;;;;;;;24.60;11.03;;;;;;;;;;6167355;23;20169;-90
2023/12/05 08:15:13;;;;;;;30.73;11.90;;;;;;;;;;6171465;23;20177;-91
2023/12/05 08:18:21;;;;;;;37.47;11.80;;;;;;;;;;6170703;23;20168;-90
2023/12/05 08:21:27;;;;;;;30.60;12.43;;;;;;;;;;6169526;23;20640;-90
2023/12/05 08:24:32;;;;;;;32.83;12.80;;;;;;;;;;6167405;23;20176;-90
2023/12/05 08:27:40;;;;;;;26.37;11.57;;;;;;;;;;6169141;23;20168;-90
2023/12/05 08:30:46;;;;;;;28.10;11.33;;;;;;;;;;6168992;23;20177;-92
2023/12/05 08:33:53;;;;;;;35.07;13.10;;;;;;;;;;6168409;23;20619;-94
2023/12/05 08:36:59;;;;;;;35.13;14.07;;;;;;;;;;6167650;23;20231;-90
2023/12/05 08:40:04;;;;;;;30.90;14.57;;;;;;;;;;6168610;23;20168;-91
2023/12/05 08:43:11;;;;;;;35.23;13.27;;;;;;;;;;6166307;23;20168;-89
2023/12/05 08:46:17;;;;;;;44.57;17.70;;;;;;;;;;6168574;23;20157;-91
2023/12/05 08:49:22;;;;;;;39.70;15.83;;;;;;;;;;6169348;23;20212;-91
2023/12/05 08:52:27;;;;;;;41.20;15.50;;;;;;;;;;6167398;23;20486;-90
2023/12/05 08:55:32;;;;;;;33.13;14.50;;;;;;;;;;6167242;23;20219;-90
2023/12/05 08:58:40;;;;;;;37.33;14.53;;;;;;;;;;6169201;23;20209;-91
2023/12/05 09:01:48;;;;;;;35.37;14.67;;;;;;;;;;6172372;23;20220;-88
2023/12/05 09:04:54;;;;;;;34.03;13.77;;;;;;;;;;6170670;23;20208;-90
2023/12/05 09:08:00;;;;;;;40.40;17.93;;;;;;;;;;6170179;23;20583;-90
2023/12/05 09:11:05;;;;;;;32.67;15.30;;;;;;;;;;6171404;23;20192;-89
2023/12/05 09:14:12;;;;;;;43.07;15.93;;;;;;;;;;6171853;23;20224;-89
2023/12/05 09:17:18;;;;;;;35.07;15.17;;;;;;;;;;6169352;23;20180;-90
2023/12/05 09:20:23;;;;;;;40.63;15.63;;;;;;;;;;6169126;23;20172;-92
2023/12/05 09:23:30;;;;;;;35.87;16.83;;;;;;;;;;6171431;23;20164;-92
2023/12/05 09:26:35;;;;;;;36.13;16.70;;;;;;;;;;6169095;23;20168;-92
2023/12/05 09:29:42;;;;;;;36.00;15.40;;;;;;;;;;6168973;23;20169;-91
2023/12/05 09:32:54;;;;;;;35.03;16.07;;;;;;;;;;6170470;23;20165;-93
2023/12/05 09:35:59;;;;;;;40.27;16.20;;;;;;;;;;6168878;23;20168;-92
2023/12/05 09:39:04;;;;;;;37.90;16.23;;;;;;;;;;6168860;23;20486;-90
2023/12/05 09:42:11;;;;;;;37.50;14.27;;;;;;;;;;6170233;23;20177;-89
2023/12/05 09:45:20;;;;;;;33.53;14.53;;;;;;;;;;6170459;23;20676;-91
2023/12/05 09:48:28;;;;;;;47.17;20.70;;;;;;;;;;6168429;23;20208;-89
2023/12/05 09:51:41;;;;;;;39.87;16.73;;;;;;;;;;6171350;23;20184;-89
2023/12/05 09:54:47;;;;;;;36.17;15.80;;;;;;;;;;6168200;23;20226;-89
2023/12/05 09:57:52;;;;;;;31.10;13.90;;;;;;;;;;6168448;23;20495;-89
2023/12/05 10:00:59;;;;;;;31.03;12.90;;;;;;;;;;6170188;23;20196;-91
2023/12/05 10:04:06;;;;;;;31.77;13.37;;;;;;;;;;6172080;23;20359;-89
2023/12/05 10:07:11;;;;;;;32.13;12.97;;;;;;;;;;6170774;23;20165;-93
2023/12/05 10:10:17;;;;;;;30.77;13.60;;;;;;;;;;6172338;23;20290;-91
2023/12/05 10:13:24;;;;;;;29.93;13.13;;;;;;;;;;6171678;23;20168;-92
2023/12/05 10:16:32;;;;;;;28.37;12.17;;;;;;;;;;6172858;23;20173;-91
2023/12/05 10:19:38;;;;;;;28.13;12.43;;;;;;;;;;6173826;23;20214;-90
2023/12/05 10:22:44;;;;;;;27.70;12.40;;;;;;;;;;6171371;23;20185;-93
2023/12/05 10:25:51;;;;;;;36.10;14.77;;;;;;;;;;6171522;23;20169;-90
2023/12/05 10:28:58;;;;;;;31.30;12.27;;;;;;;;;;6170022;23;20225;-91
2023/12/05 10:32:05;;;;;;;33.23;13.80;;;;;;;;;;6171248;23;20273;-90
2023/12/05 10:35:11;;;;;;;33.57;14.63;;;;;;;;;;6173154;23;20157;-90
2023/12/05 10:38:18;;;;;;;36.33;14.63;;;;;;;;;;6169953;23;20169;-89
2023/12/05 10:41:25;;;;;;;32.37;12.53;;;;;;;;;;6173770;23;20247;-91
2023/12/05 10:44:39;;;;;;;38.87;15.97;;;;;;;;;;6174305;23;20210;-90
2023/12/05 10:47:49;;;;;;;40.20;15.27;;;;;;;;;;6175302;23;20169;-91
2023/12/05 10:50:56;;;;;;;38.47;15.53;;;;;;;;;;6172481;23;20195;-93
2023/12/05 10:54:01;;;;;;;39.17;15.73;;;;;;;;;;6170657;23;20164;-90
2023/12/05 10:57:09;;;;;;;41.30;15.90;;;;;;;;;;6169559;23;20179;-91
2023/12/05 11:00:15;;;;;;;39.50;16.47;;;;;;;;;;6171796;23;20261;-91
2023/12/05 11:03:22;;;;;;;51.23;20.10;;;;;;;;;;6172176;23;20176;-93
2023/12/05 11:06:28;;;;;;;40.77;17.83;;;;;;;;;;6172928;23;20180;-88
2023/12/05 11:09:33;;;;;;;36.10;16.97;;;;;;;;;;6171450;23;20175;-90
2023/12/05 11:12:39;;;;;;;43.47;19.33;;;;;;;;;;6170871;23;20176;-92
2023/12/05 11:15:45;;;;;;;40.90;17.37;;;;;;;;;;6166305;23;20164;-92
2023/12/05 11:18:56;;;;;;;34.63;15.37;;;;;;;;;;6167601;23;20216;-92
2023/12/05 11:22:05;;;;;;;35.47;15.07;;;;;;;;;;6169550;23;20172;-92
2023/12/05 11:25:17;;;;;;;48.43;19.07;;;;;;;;;;6167943;23;20188;-89
2023/12/05 11:28:36;;;;;;;48.50;19.33;;;;;;;;;;6170131;23;20169;-90
2023/12/05 11:31:45;;;;;;;51.37;19.10;;;;;;;;;;6170378;23;20244;-91
2023/12/05 11:34:57;;;;;;;80.20;26.40;;;;;;;;;;6169381;23;20227;-90
2023/12/05 11:38:10;;;;;;;55.87;22.60;;;;;;;;;;6170450;23;20164;-91
2023/12/05 11:41:17;;;;;;;64.10;24.40;;;;;;;;;;6169343;23;20173;-91
2023/12/05 11:44:22;;;;;;;41.13;18.03;;;;;;;;;;6170708;23;20213;-90
2023/12/05 11:47:29;;;;;;;44.33;18.23;;;;;;;;;;6169431;23;20265;-91
2023/12/05 11:50:43;;;;;;;40.77;17.00;;;;;;;;;;6170185;23;20169;-91
2023/12/05 11:53:51;;;;;;;39.73;15.17;;;;;;;;;;6168267;23;20225;-90
2023/12/05 11:57:11;;;;;;;37.70;16.00;;;;;;;;;;6169630;23;20172;-90
2023/12/05 12:00:15;;;;;;;32.13;15.17;;;;;;;;;;6171364;23;20316;-92
2023/12/05 12:03:20;;;;;;;40.17;16.37;;;;;;;;;;6171439;23;20678;-90
2023/12/05 12:10:15;;;;;;;40.50;17.70;;;;;;;;;;6173952;23;20224;-93
2023/12/05 12:16:43;;;;;;;36.60;15.57;;;;;;;;;;6175823;23;20241;-91
2023/12/05 12:19:48;;;;;;;35.67;15.47;;;;;;;;;;6170912;23;20490;-90
2023/12/05 12:22:54;;;;;;;50.17;19.33;;;;;;;;;;6172027;23;20168;-91
2023/12/05 12:26:02;;;;;;;47.00;18.90;;;;;;;;;;6170300;23;20172;-90
2023/12/05 12:29:08;;;;;;;39.43;16.97;;;;;;;;;;6172410;23;20597;-91
2023/12/05 12:32:13;;;;;;;40.07;17.17;;;;;;;;;;6172691;23;20217;-90
2023/12/05 12:35:20;;;;;;;37.73;16.57;;;;;;;;;;6173041;23;20151;-90
2023/12/05 12:38:25;;;;;;;34.67;16.00;;;;;;;;;;6174310;23;20193;-91
2023/12/05 12:41:32;;;;;;;39.57;16.23;;;;;;;;;;6172807;23;20164;-90
2023/12/05 12:44:43;;;;;;;39.43;14.57;;;;;;;;;;6169730;23;20167;-93
2023/12/05 12:47:48;;;;;;;39.07;15.70;;;;;;;;;;6149926;23;20165;-93
2023/12/05 12:50:54;;;;;;;42.57;16.47;;;;;;;;;;6169716;23;20213;-93
2023/12/05 12:54:01;;;;;;;31.00;14.83;;;;;;;;;;6169105;23;20226;-93
2023/12/05 12:57:08;;;;;;;36.73;15.57;;;;;;;;;;6168317;23;20292;-91
2023/12/05 13:00:17;;;;;;;33.97;15.70;;;;;;;;;;6168175;23;20617;-92
2023/12/05 13:03:23;;;;;;;50.47;21.87;;;;;;;;;;6167442;23;20172;-90
2023/12/05 13:06:36;;;;;;;35.07;16.40;;;;;;;;;;6170355;23;20620;-93
2023/12/05 13:09:41;;;;;;;38.07;16.87;;;;;;;;;;6166527;23;20175;-90
2023/12/05 13:12:55;;;;;;;38.47;16.30;;;;;;;;;;6168559;23;20196;-93
2023/12/05 13:16:03;;;;;;;37.20;16.00;;;;;;;;;;6167148;23;20169;-89
2023/12/05 13:19:08;;;;;;;37.00;16.20;;;;;;;;;;6167736;23;20177;-90
2023/12/05 13:22:13;;;;;;;37.07;16.13;;;;;;;;;;6168943;23;20160;-91
2023/12/05 13:25:18;;;;;;;45.13;18.63;;;;;;;;;;6171893;23;20176;-91
2023/12/05 13:28:26;;;;;;;40.37;17.70;;;;;;;;;;6170807;23;20617;-90
2023/12/05 13:31:32;;;;;;;42.67;17.73;;;;;;;;;;6171234;23;20197;-90
2023/12/05 13:34:38;;;;;;;36.93;16.67;;;;;;;;;;6169187;23;20157;-91
2023/12/05 13:37:43;;;;;;;41.90;17.47;;;;;;;;;;6168529;23;20180;-93
2023/12/05 13:40:58;;;;;;;47.87;18.27;;;;;;;;;;6170585;23;20168;-92
2023/12/05 13:44:05;;;;;;;45.67;17.50;;;;;;;;;;6168470;23;20184;-93
2023/12/05 13:47:10;;;;;;;43.30;17.67;;;;;;;;;;6169767;23;20614;-91
2023/12/05 13:50:19;;;;;;;40.00;18.17;;;;;;;;;;6168772;23;20251;-93
2023/12/05 13:53:24;;;;;;;43.33;18.50;;;;;;;;;;6171817;23;20172;-91
2023/12/05 13:56:29;;;;;;;41.63;18.17;;;;;;;;;;6170451;23;20281;-91
2023/12/05 13:59:36;;;;;;;42.97;17.00;;;;;;;;;;6171729;23;20201;-91
2023/12/05 14:02:50;;;;;;;40.57;17.53;;;;;;;;;;6169253;23;20635;-89
2023/12/05 14:05:56;;;;;;;44.77;18.17;;;;;;;;;;6167762;23;20164;-90
2023/12/05 14:09:02;;;;;;;43.03;18.20;;;;;;;;;;6168809;23;20169;-93
2023/12/05 14:12:11;;;;;;;49.17;19.13;;;;;;;;;;6167173;23;20193;-92
2023/12/05 14:15:18;;;;;;;43.63;18.53;;;;;;;;;;6170884;23;20160;-91
2023/12/05 14:18:23;;;;;;;43.73;18.80;;;;;;;;;;6170668;23;20198;-91
2023/12/05 14:21:29;;;;;;;45.43;19.50;;;;;;;;;;6168364;23;20172;-91
2023/12/05 14:24:34;;;;;;;52.00;21.40;;;;;;;;;;6169888;23;20208;-92
2023/12/05 14:27:39;;;;;;;51.33;21.33;;;;;;;;;;6169630;23;20181;-91
2023/12/05 14:30:46;;;;;;;47.63;21.73;;;;;;;;;;6171530;23;20171;-92
2023/12/05 14:33:53;;;;;;;53.20;24.20;;;;;;;;;;6171915;23;20172;-93
2023/12/05 14:36:58;;;;;;;61.07;24.67;;;;;;;;;;6172820;23;20229;-90
2023/12/05 14:40:06;;;;;;;52.00;23.10;;;;;;;;;;6169184;23;20215;-90
2023/12/05 14:43:11;;;;;;;46.97;21.20;;;;;;;;;;6169865;23;20172;-90
2023/12/05 14:46:18;;;;;;;50.00;22.17;;;;;;;;;;6170067;23;20169;-92
2023/12/05 14:49:23;;;;;;;48.17;20.10;;;;;;;;;;6171568;23;20168;-92
2023/12/05 14:52:28;;;;;;;49.37;21.43;;;;;;;;;;6171529;23;20192;-92
2023/12/05 14:55:34;;;;;;;46.73;20.93;;;;;;;;;;6170468;23;20212;-91
2023/12/05 14:58:39;;;;;;;52.00;22.40;;;;;;;;;;6172860;23;20253;-92
2023/12/05 15:01:47;;;;;;;50.37;22.30;;;;;;;;;;6173956;23;20240;-91
2023/12/05 15:04:55;;;;;;;54.33;23.03;;;;;;;;;;6174586;23;20164;-91
2023/12/05 15:08:00;;;;;;;54.17;23.90;;;;;;;;;;6174681;23;20172;-89
2023/12/05 15:11:08;;;;;;;56.80;25.33;;;;;;;;;;6175486;23;20212;-92
2023/12/05 15:14:14;;;;;;;56.73;24.00;;;;;;;;;;6174664;23;20197;-93
2023/12/05 15:17:21;;;;;;;55.37;24.10;;;;;;;;;;6171967;23;20164;-92
2023/12/05 15:20:27;;;;;;;57.00;25.00;;;;;;;;;;6170380;23;20621;-90
2023/12/05 15:23:32;;;;;;;56.00;23.27;;;;;;;;;;6172787;23;20172;-90
2023/12/05 15:26:37;;;;;;;60.40;24.53;;;;;;;;;;6174701;23;20164;-91
2023/12/05 15:29:42;;;;;;;52.63;22.63;;;;;;;;;;6172750;23;20168;-89
2023/12/05 15:32:54;;;;;;;60.63;24.60;;;;;;;;;;6169888;23;20197;-90
2023/12/05 15:39:19;;;;;;;55.67;23.43;;;;;;;;;;6173022;23;20175;-89
2023/12/05 15:45:43;;;;;;;51.60;22.80;;;;;;;;;;6175814;23;20215;-93
2023/12/05 15:48:49;;;;;;;52.50;22.77;;;;;;;;;;6171645;23;20613;-90
2023/12/05 15:51:55;;;;;;;56.63;23.27;;;;;;;;;;6172689;23;20216;-91
2023/12/05 15:55:01;;;;;;;60.90;25.73;;;;;;;;;;6173676;23;20180;-93
2023/12/05 15:58:09;;;;;;;53.50;23.60;;;;;;;;;;6172190;23;20152;-90
2023/12/05 16:01:15;;;;;;;54.67;22.40;;;;;;;;;;6171993;23;20212;-92
2023/12/05 16:04:21;;;;;;;58.17;24.90;;;;;;;;;;6171911;23;20265;-92
2023/12/05 16:07:27;;;;;;;65.13;24.40;;;;;;;;;;6171694;23;20171;-90
2023/12/05 16:10:33;;;;;;;60.33;23.83;;;;;;;;;;6174068;23;20220;-91
2023/12/05 16:13:39;;;;;;;53.93;22.63;;;;;;;;;;6172350;23;20192;-92
2023/12/05 16:16:45;;;;;;;63.80;25.73;;;;;;;;;;6172087;23;20169;-91
2023/12/05 16:20:01;;;;;;;66.57;26.47;;;;;;;;;;6172192;23;20175;-92
2023/12/05 16:23:07;;;;;;;70.37;27.03;;;;;;;;;;6175358;23;20170;-91
2023/12/05 16:26:13;;;;;;;62.87;24.57;;;;;;;;;;6172900;23;20252;-92
2023/12/05 16:29:19;;;;;;;59.60;24.23;;;;;;;;;;6173791;23;20149;-93
2023/12/05 16:32:24;;;;;;;66.20;27.57;;;;;;;;;;6174637;23;20199;-91
2023/12/05 16:35:34;;;;;;;67.63;26.67;;;;;;;;;;6176209;23;20176;-90
2023/12/05 16:38:41;;;;;;;57.67;26.00;;;;;;;;;;6177365;23;20168;-89
2023/12/05 16:48:28;;;;;;;56.37;23.93;;;;;;;;;;6175229;23;20185;-92
2023/12/05 16:51:47;;;;;;;56.40;23.27;;;;;;;;;;6176601;23;20192;-90
2023/12/05 16:54:56;;;;;;;56.90;24.37;;;;;;;;;;6174387;23;20184;-93
2023/12/05 16:58:02;;;;;;;55.67;23.43;;;;;;;;;;6172345;23;20241;-91
2023/12/05 17:01:11;;;;;;;56.17;24.50;;;;;;;;;;6172123;23;20231;-93
2023/12/05 17:04:18;;;;;;;56.57;24.40;;;;;;;;;;6172437;23;20176;-91
2023/12/05 17:07:25;;;;;;;55.30;24.23;;;;;;;;;;6172006;23;20169;-91
2023/12/05 17:10:35;;;;;;;60.17;23.73;;;;;;;;;;6170764;23;20173;-91
2023/12/05 17:13:42;;;;;;;50.63;21.23;;;;;;;;;;6169335;23;20184;-90
2023/12/05 17:16:47;;;;;;;56.37;22.30;;;;;;;;;;6171921;23;20172;-91
2023/12/05 17:19:53;;;;;;;62.87;26.20;;;;;;;;;;6174562;23;20177;-92
2023/12/05 17:23:00;;;;;;;79.30;30.23;;;;;;;;;;6171515;23;20195;-91
2023/12/05 17:26:06;;;;;;;67.30;24.80;;;;;;;;;;6173710;23;20173;-90
2023/12/05 17:29:12;;;;;;;60.17;24.87;;;;;;;;;;6171858;23;20153;-90
2023/12/05 17:32:25;;;;;;;68.63;26.67;;;;;;;;;;6171375;23;20192;-90
2023/12/05 17:35:31;;;;;;;61.40;25.00;;;;;;;;;;6173939;23;20168;-91
2023/12/05 17:38:38;;;;;;;64.87;26.00;;;;;;;;;;6172457;23;20169;-91
2023/12/05 17:41:43;;;;;;;70.23;27.80;;;;;;;;;;6173374;23;20217;-91
2023/12/05 17:44:51;;;;;;;71.63;28.30;;;;;;;;;;6168051;23;20244;-92
2023/12/05 17:47:57;;;;;;;59.67;25.70;;;;;;;;;;6170858;23;20242;-90
2023/12/05 17:51:03;;;;;;;60.87;26.03;;;;;;;;;;6176905;23;20216;-88
2023/12/05 18:00:55;;;;;;;64.63;24.97;;;;;;;;;;6182909;23;20180;-90
2023/12/05 18:07:25;;;;;;;59.87;26.07;;;;;;;;;;6181924;23;20177;-90
2023/12/05 20:02:54;;;;;;;61.77;25.73;;;;;;;;;;6149243;23;20208;-91
2023/12/05 20:06:04;;;;;;;57.33;24.87;;;;;;;;;;6193852;23;20175;-89
2023/12/05 20:09:11;;;;;;;57.23;24.03;;;;;;;;;;6204538;23;20172;-92
2023/12/05 20:12:17;;;;;;;68.30;27.77;;;;;;;;;;6202499;23;20172;-90
2023/12/05 20:15:22;;;;;;;59.70;24.17;;;;;;;;;;6203616;23;20215;-92
2023/12/05 20:18:31;;;;;;;62.67;24.87;;;;;;;;;;6203967;23;20180;-92
2023/12/05 20:21:38;;;;;;;70.50;26.23;;;;;;;;;;6202276;23;20172;-90
2023/12/05 20:24:43;;;;;;;63.97;26.57;;;;;;;;;;6203342;23;20172;-89
2023/12/05 20:27:49;;;;;;;58.97;23.37;;;;;;;;;;6202609;23;20171;-90